sensor_id;sensor_type;location;lat;lon;timestamp;P1;durP1;ratioP1;P2;durP2;ratioP2
45466;SDS011;31212;49.734;8.490;2023-04-03T00:02:15;4.77;;;1.73;;
45466;SDS011;31212;49.734;8.490;2023-04-03T00:04:41;1.43;;;1.30;;
45466;SDS011;31212;49.734;8.490;2023-04-03T00:07:07;3.47;;;1.90;;
45466;SDS011;31212;49.734;8.490;2023-04-03T00:09:34;10.03;;;2.23;;
45466;SDS011;31212;49.734;8.490;2023-04-03T00:12:02;4.23;;;1.17;;
45466;SDS011;31212;49.734;8.490;2023-04-03T00:14:29;3.77;;;1.53;;
45466;SDS011;31212;49.734;8.490;2023-04-03T00:16:55;2.30;;;1.20;;
45466;SDS011;31212;49.734;8.490;2023-04-03T00:19:22;3.07;;;1.60;;
45466;SDS011;31212;49.734;8.490;2023-04-03T00:21:48;4.60;;;1.87;;
45466;SDS011;31212;49.734;8.490;2023-04-03T00:24:15;1.10;;;1.00;;
45466;SDS011;31212;49.734;8.490;2023-04-03T00:26:42;2.60;;;2.03;;
45466;SDS011;31212;49.734;8.490;2023-04-03T00:29:09;2.13;;;1.57;;
45466;SDS011;31212;49.734;8.490;2023-04-03T00:31:36;3.00;;;1.60;;
45466;SDS011;31212;49.734;8.490;2023-04-03T00:34:03;2.60;;;2.37;;
45466;SDS011;31212;49.734;8.490;2023-04-03T00:36:29;1.70;;;1.60;;
45466;SDS011;31212;49.734;8.490;2023-04-03T00:38:56;1.57;;;1.47;;
45466;SDS011;31212;49.734;8.490;2023-04-03T00:41:23;1.67;;;1.53;;
45466;SDS011;31212;49.734;8.490;2023-04-03T00:43:50;3.73;;;1.93;;
45466;SDS011;31212;49.734;8.490;2023-04-03T00:46:18;4.70;;;2.77;;
45466;SDS011;31212;49.734;8.490;2023-04-03T00:48:46;2.43;;;1.57;;
45466;SDS011;31212;49.734;8.490;2023-04-03T00:51:14;4.47;;;1.97;;
45466;SDS011;31212;49.734;8.490;2023-04-03T00:53:46;1.60;;;1.33;;
45466;SDS011;31212;49.734;8.490;2023-04-03T00:56:17;10.23;;;2.67;;
45466;SDS011;31212;49.734;8.490;2023-04-03T00:58:48;3.23;;;2.00;;
45466;SDS011;31212;49.734;8.490;2023-04-03T01:01:20;12.53;;;2.40;;
45466;SDS011;31212;49.734;8.490;2023-04-03T01:03:49;3.03;;;2.20;;
45466;SDS011;31212;49.734;8.490;2023-04-03T01:06:17;3.50;;;1.63;;
45466;SDS011;31212;49.734;8.490;2023-04-03T01:08:48;4.07;;;2.53;;
45466;SDS011;31212;49.734;8.490;2023-04-03T01:11:15;2.10;;;1.83;;
45466;SDS011;31212;49.734;8.490;2023-04-03T01:13:43;9.13;;;2.70;;
45466;SDS011;31212;49.734;8.490;2023-04-03T01:16:10;3.03;;;1.57;;
45466;SDS011;31212;49.734;8.490;2023-04-03T01:18:39;4.07;;;2.40;;
45466;SDS011;31212;49.734;8.490;2023-04-03T01:21:27;7.00;;;2.33;;
45466;SDS011;31212;49.734;8.490;2023-04-03T01:24:16;2.57;;;1.63;;
45466;SDS011;31212;49.734;8.490;2023-04-03T01:26:49;1.43;;;1.33;;
45466;SDS011;31212;49.734;8.490;2023-04-03T01:29:16;7.23;;;1.60;;
45466;SDS011;31212;49.734;8.490;2023-04-03T01:31:51;3.20;;;1.90;;
45466;SDS011;31212;49.734;8.490;2023-04-03T01:34:19;13.47;;;1.97;;
45466;SDS011;31212;49.734;8.490;2023-04-03T01:36:46;4.07;;;2.23;;
45466;SDS011;31212;49.734;8.490;2023-04-03T01:39:13;1.70;;;1.43;;
45466;SDS011;31212;49.734;8.490;2023-04-03T01:41:40;2.23;;;1.40;;
45466;SDS011;31212;49.734;8.490;2023-04-03T01:44:13;5.68;;;2.03;;
45466;SDS011;31212;49.734;8.490;2023-04-03T01:46:39;2.17;;;1.77;;
45466;SDS011;31212;49.734;8.490;2023-04-03T01:49:08;2.73;;;1.90;;
45466;SDS011;31212;49.734;8.490;2023-04-03T01:51:35;3.50;;;2.00;;
45466;SDS011;31212;49.734;8.490;2023-04-03T01:54:02;1.70;;;1.07;;
45466;SDS011;31212;49.734;8.490;2023-04-03T01:56:29;2.07;;;1.73;;
45466;SDS011;31212;49.734;8.490;2023-04-03T01:58:56;7.13;;;1.70;;
45466;SDS011;31212;49.734;8.490;2023-04-03T02:01:22;3.47;;;1.40;;
45466;SDS011;31212;49.734;8.490;2023-04-03T02:03:50;2.47;;;1.63;;
45466;SDS011;31212;49.734;8.490;2023-04-03T02:06:18;4.67;;;1.67;;
45466;SDS011;31212;49.734;8.490;2023-04-03T02:08:45;3.77;;;2.40;;
45466;SDS011;31212;49.734;8.490;2023-04-03T02:11:11;3.10;;;2.50;;
45466;SDS011;31212;49.734;8.490;2023-04-03T02:13:38;4.03;;;1.80;;
45466;SDS011;31212;49.734;8.490;2023-04-03T02:16:08;2.87;;;1.70;;
45466;SDS011;31212;49.734;8.490;2023-04-03T02:18:36;1.93;;;1.40;;
45466;SDS011;31212;49.734;8.490;2023-04-03T02:21:02;1.33;;;1.23;;
45466;SDS011;31212;49.734;8.490;2023-04-03T02:23:31;1.97;;;1.43;;
45466;SDS011;31212;49.734;8.490;2023-04-03T02:26:02;2.97;;;1.87;;
45466;SDS011;31212;49.734;8.490;2023-04-03T02:28:32;1.80;;;1.50;;
45466;SDS011;31212;49.734;8.490;2023-04-03T02:30:59;4.27;;;2.33;;
45466;SDS011;31212;49.734;8.490;2023-04-03T02:33:26;3.57;;;1.77;;
45466;SDS011;31212;49.734;8.490;2023-04-03T02:35:53;3.03;;;2.40;;
45466;SDS011;31212;49.734;8.490;2023-04-03T02:38:21;2.87;;;2.30;;
45466;SDS011;31212;49.734;8.490;2023-04-03T02:40:49;2.93;;;2.10;;
45466;SDS011;31212;49.734;8.490;2023-04-03T02:43:17;5.03;;;2.87;;
45466;SDS011;31212;49.734;8.490;2023-04-03T02:45:43;3.27;;;2.53;;
45466;SDS011;31212;49.734;8.490;2023-04-03T02:48:10;2.20;;;1.77;;
45466;SDS011;31212;49.734;8.490;2023-04-03T02:50:37;2.20;;;1.90;;
45466;SDS011;31212;49.734;8.490;2023-04-03T02:53:03;4.57;;;2.03;;
45466;SDS011;31212;49.734;8.490;2023-04-03T05:48:52;14.37;;;2.50;;
45466;SDS011;31212;49.734;8.490;2023-04-03T05:51:22;5.13;;;1.70;;
45466;SDS011;31212;49.734;8.490;2023-04-03T05:53:54;5.53;;;2.90;;
45466;SDS011;31212;49.734;8.490;2023-04-03T05:56:28;5.40;;;2.60;;
45466;SDS011;31212;49.734;8.490;2023-04-03T05:58:55;7.67;;;1.70;;
45466;SDS011;31212;49.734;8.490;2023-04-03T06:01:23;9.97;;;3.40;;
45466;SDS011;31212;49.734;8.490;2023-04-03T06:03:49;3.70;;;1.87;;
45466;SDS011;31212;49.734;8.490;2023-04-03T06:06:18;5.57;;;1.80;;
45466;SDS011;31212;49.734;8.490;2023-04-03T06:08:45;6.80;;;2.07;;
45466;SDS011;31212;49.734;8.490;2023-04-03T06:11:11;2.67;;;2.13;;
45466;SDS011;31212;49.734;8.490;2023-04-03T06:13:38;2.80;;;2.23;;
45466;SDS011;31212;49.734;8.490;2023-04-03T06:16:04;2.07;;;1.43;;
45466;SDS011;31212;49.734;8.490;2023-04-03T06:18:31;5.27;;;0.90;;
45466;SDS011;31212;49.734;8.490;2023-04-03T06:20:58;9.67;;;1.57;;
45466;SDS011;31212;49.734;8.490;2023-04-03T06:23:27;1.00;;;0.87;;
45466;SDS011;31212;49.734;8.490;2023-04-03T06:25:53;2.87;;;2.10;;
45466;SDS011;31212;49.734;8.490;2023-04-03T06:28:20;3.40;;;1.47;;
45466;SDS011;31212;49.734;8.490;2023-04-03T06:30:47;1.37;;;1.10;;
45466;SDS011;31212;49.734;8.490;2023-04-03T06:33:13;3.47;;;2.17;;
45466;SDS011;31212;49.734;8.490;2023-04-03T06:35:40;7.97;;;1.20;;
45466;SDS011;31212;49.734;8.490;2023-04-03T06:38:06;2.80;;;1.53;;
45466;SDS011;31212;49.734;8.490;2023-04-03T06:40:35;2.60;;;1.27;;
45466;SDS011;31212;49.734;8.490;2023-04-03T06:43:03;2.40;;;1.30;;
45466;SDS011;31212;49.734;8.490;2023-04-03T06:45:30;2.60;;;1.07;;
45466;SDS011;31212;49.734;8.490;2023-04-03T06:47:56;1.53;;;1.43;;
45466;SDS011;31212;49.734;8.490;2023-04-03T06:50:23;1.83;;;1.13;;
45466;SDS011;31212;49.734;8.490;2023-04-03T06:52:49;2.10;;;0.80;;
45466;SDS011;31212;49.734;8.490;2023-04-03T06:55:16;1.93;;;1.27;;
45466;SDS011;31212;49.734;8.490;2023-04-03T06:57:44;3.20;;;1.67;;
45466;SDS011;31212;49.734;8.490;2023-04-03T07:00:11;6.53;;;1.13;;
45466;SDS011;31212;49.734;8.490;2023-04-03T07:02:38;1.90;;;1.40;;
45466;SDS011;31212;49.734;8.490;2023-04-03T07:05:05;3.30;;;2.07;;
45466;SDS011;31212;49.734;8.490;2023-04-03T07:07:32;1.20;;;1.10;;
45466;SDS011;31212;49.734;8.490;2023-04-03T07:09:59;3.13;;;1.40;;
45466;SDS011;31212;49.734;8.490;2023-04-03T07:12:25;2.47;;;1.47;;
45466;SDS011;31212;49.734;8.490;2023-04-03T07:14:53;3.87;;;0.90;;
45466;SDS011;31212;49.734;8.490;2023-04-03T07:17:20;6.75;;;1.15;;
45466;SDS011;31212;49.734;8.490;2023-04-03T07:19:46;1.45;;;1.13;;
45466;SDS011;31212;49.734;8.490;2023-04-03T07:22:13;3.83;;;2.00;;
45466;SDS011;31212;49.734;8.490;2023-04-03T07:24:39;1.40;;;1.15;;
45466;SDS011;31212;49.734;8.490;2023-04-03T07:27:06;1.83;;;1.30;;
45466;SDS011;31212;49.734;8.490;2023-04-03T07:29:33;1.50;;;1.17;;
45466;SDS011;31212;49.734;8.490;2023-04-03T07:32:01;3.55;;;1.55;;
45466;SDS011;31212;49.734;8.490;2023-04-03T07:34:27;2.25;;;1.52;;
45466;SDS011;31212;49.734;8.490;2023-04-03T07:36:55;5.35;;;1.30;;
45466;SDS011;31212;49.734;8.490;2023-04-03T07:39:22;3.47;;;0.90;;
45466;SDS011;31212;49.734;8.490;2023-04-03T07:41:49;3.67;;;1.35;;
45466;SDS011;31212;49.734;8.490;2023-04-03T07:44:16;5.57;;;1.02;;
45466;SDS011;31212;49.734;8.490;2023-04-03T07:46:42;2.63;;;1.02;;
45466;SDS011;31212;49.734;8.490;2023-04-03T07:49:10;5.68;;;1.45;;
45466;SDS011;31212;49.734;8.490;2023-04-03T07:51:37;2.50;;;1.35;;
45466;SDS011;31212;49.734;8.490;2023-04-03T07:54:03;1.20;;;1.00;;
45466;SDS011;31212;49.734;8.490;2023-04-03T07:56:30;3.42;;;1.48;;
45466;SDS011;31212;49.734;8.490;2023-04-03T07:58:56;3.08;;;1.70;;
45466;SDS011;31212;49.734;8.490;2023-04-03T08:01:23;3.00;;;1.38;;
45466;SDS011;31212;49.734;8.490;2023-04-03T08:03:49;1.95;;;1.10;;
45466;SDS011;31212;49.734;8.490;2023-04-03T08:06:17;3.85;;;1.27;;
45466;SDS011;31212;49.734;8.490;2023-04-03T08:08:44;4.57;;;0.77;;
45466;SDS011;31212;49.734;8.490;2023-04-03T08:11:11;2.22;;;1.13;;
45466;SDS011;31212;49.734;8.490;2023-04-03T08:13:37;2.92;;;0.90;;
45466;SDS011;31212;49.734;8.490;2023-04-03T08:16:07;2.95;;;1.35;;
45466;SDS011;31212;49.734;8.490;2023-04-03T08:18:36;1.83;;;0.77;;
45466;SDS011;31212;49.734;8.490;2023-04-03T08:21:05;6.80;;;1.38;;
45466;SDS011;31212;49.734;8.490;2023-04-03T08:23:34;4.07;;;1.20;;
45466;SDS011;31212;49.734;8.490;2023-04-03T08:26:05;2.97;;;0.95;;
45466;SDS011;31212;49.734;8.490;2023-04-03T08:28:32;6.45;;;1.83;;
45466;SDS011;31212;49.734;8.490;2023-04-03T08:31:02;1.70;;;1.00;;
45466;SDS011;31212;49.734;8.490;2023-04-03T08:33:29;0.98;;;0.70;;
45466;SDS011;31212;49.734;8.490;2023-04-03T08:35:55;4.40;;;1.20;;
45466;SDS011;31212;49.734;8.490;2023-04-03T08:38:22;1.80;;;0.80;;
45466;SDS011;31212;49.734;8.490;2023-04-03T08:41:00;1.02;;;0.63;;
45466;SDS011;31212;49.734;8.490;2023-04-03T08:43:32;2.47;;;1.02;;
45466;SDS011;31212;49.734;8.490;2023-04-03T08:46:05;2.42;;;1.25;;
45466;SDS011;31212;49.734;8.490;2023-04-03T08:48:38;4.10;;;1.17;;
45466;SDS011;31212;49.734;8.490;2023-04-03T08:51:09;0.50;;;0.50;;
45466;SDS011;31212;49.734;8.490;2023-04-03T08:53:40;2.40;;;0.77;;
45466;SDS011;31212;49.734;8.490;2023-04-03T08:56:12;1.58;;;0.70;;
45466;SDS011;31212;49.734;8.490;2023-04-03T08:58:45;2.15;;;0.93;;
45466;SDS011;31212;49.734;8.490;2023-04-03T09:01:17;3.30;;;0.80;;
45466;SDS011;31212;49.734;8.490;2023-04-03T09:03:46;1.00;;;0.90;;
45466;SDS011;31212;49.734;8.490;2023-04-03T09:06:13;4.85;;;1.38;;
45466;SDS011;31212;49.734;8.490;2023-04-03T09:08:43;5.32;;;1.00;;
45466;SDS011;31212;49.734;8.490;2023-04-03T09:11:16;0.80;;;0.70;;
45466;SDS011;31212;49.734;8.490;2023-04-03T09:13:49;1.10;;;0.68;;
45466;SDS011;31212;49.734;8.490;2023-04-03T09:16:23;3.72;;;1.27;;
45466;SDS011;31212;49.734;8.490;2023-04-03T09:18:56;1.58;;;0.80;;
45466;SDS011;31212;49.734;8.490;2023-04-03T09:21:30;2.97;;;0.85;;
45466;SDS011;31212;49.734;8.490;2023-04-03T09:24:01;1.40;;;1.30;;
45466;SDS011;31212;49.734;8.490;2023-04-03T09:26:33;7.40;;;0.88;;
45466;SDS011;31212;49.734;8.490;2023-04-03T09:29:05;0.50;;;0.50;;
45466;SDS011;31212;49.734;8.490;2023-04-03T09:31:36;2.15;;;1.00;;
45466;SDS011;31212;49.734;8.490;2023-04-03T09:34:06;1.88;;;1.05;;
45466;SDS011;31212;49.734;8.490;2023-04-03T09:36:40;1.90;;;0.65;;
45466;SDS011;31212;49.734;8.490;2023-04-03T09:39:09;1.27;;;1.08;;
45466;SDS011;31212;49.734;8.490;2023-04-03T09:41:41;1.35;;;0.70;;
45466;SDS011;31212;49.734;8.490;2023-04-03T09:44:18;3.08;;;0.98;;
45466;SDS011;31212;49.734;8.490;2023-04-03T09:46:47;0.73;;;0.50;;
45466;SDS011;31212;49.734;8.490;2023-04-03T09:49:15;1.63;;;0.90;;
45466;SDS011;31212;49.734;8.490;2023-04-03T09:51:41;0.50;;;0.50;;
45466;SDS011;31212;49.734;8.490;2023-04-03T09:54:23;3.10;;;0.80;;
45466;SDS011;31212;49.734;8.490;2023-04-03T09:56:53;1.55;;;0.60;;
45466;SDS011;31212;49.734;8.490;2023-04-03T09:59:22;1.17;;;0.80;;
45466;SDS011;31212;49.734;8.490;2023-04-03T10:01:56;2.75;;;1.13;;
45466;SDS011;31212;49.734;8.490;2023-04-03T10:04:24;1.85;;;0.90;;
45466;SDS011;31212;49.734;8.490;2023-04-03T10:06:51;1.08;;;0.77;;
45466;SDS011;31212;49.734;8.490;2023-04-03T10:09:20;5.28;;;0.90;;
45466;SDS011;31212;49.734;8.490;2023-04-03T10:12:02;0.68;;;0.65;;
45466;SDS011;31212;49.734;8.490;2023-04-03T10:14:30;0.77;;;0.70;;
45466;SDS011;31212;49.734;8.490;2023-04-03T10:16:59;1.48;;;0.88;;
45466;SDS011;31212;49.734;8.490;2023-04-03T10:19:34;0.85;;;0.75;;
45466;SDS011;31212;49.734;8.490;2023-04-03T10:22:10;0.55;;;0.55;;
45466;SDS011;31212;49.734;8.490;2023-04-03T10:24:44;1.50;;;0.55;;
45466;SDS011;31212;49.734;8.490;2023-04-03T10:27:21;1.55;;;0.70;;
45466;SDS011;31212;49.734;8.490;2023-04-03T10:29:58;1.15;;;0.93;;
45466;SDS011;31212;49.734;8.490;2023-04-03T10:32:42;2.10;;;0.63;;
45466;SDS011;31212;49.734;8.490;2023-04-03T10:35:16;0.60;;;0.60;;
45466;SDS011;31212;49.734;8.490;2023-04-03T10:37:50;0.50;;;0.50;;
45466;SDS011;31212;49.734;8.490;2023-04-03T10:40:29;0.73;;;0.70;;
45466;SDS011;31212;49.734;8.490;2023-04-03T10:43:08;1.65;;;0.85;;
45466;SDS011;31212;49.734;8.490;2023-04-03T10:45:49;1.20;;;0.70;;
45466;SDS011;31212;49.734;8.490;2023-04-03T10:48:25;0.98;;;0.75;;
45466;SDS011;31212;49.734;8.490;2023-04-03T10:51:06;2.28;;;1.35;;
45466;SDS011;31212;49.734;8.490;2023-04-03T10:53:44;1.98;;;1.00;;
45466;SDS011;31212;49.734;8.490;2023-04-03T10:56:17;4.82;;;1.17;;
45466;SDS011;31212;49.734;8.490;2023-04-03T10:58:50;2.53;;;0.90;;
45466;SDS011;31212;49.734;8.490;2023-04-03T11:01:24;1.58;;;0.63;;
45466;SDS011;31212;49.734;8.490;2023-04-03T11:03:57;3.05;;;0.95;;
45466;SDS011;31212;49.734;8.490;2023-04-03T11:06:30;1.92;;;0.70;;
45466;SDS011;31212;49.734;8.490;2023-04-03T11:09:03;6.18;;;1.52;;
45466;SDS011;31212;49.734;8.490;2023-04-03T11:11:37;0.85;;;0.40;;
45466;SDS011;31212;49.734;8.490;2023-04-03T11:14:10;2.03;;;1.15;;
45466;SDS011;31212;49.734;8.490;2023-04-03T11:16:42;0.70;;;0.70;;
45466;SDS011;31212;49.734;8.490;2023-04-03T11:19:14;4.93;;;0.68;;
45466;SDS011;31212;49.734;8.490;2023-04-03T11:21:47;0.88;;;0.60;;
45466;SDS011;31212;49.734;8.490;2023-04-03T11:24:22;0.77;;;0.50;;
45466;SDS011;31212;49.734;8.490;2023-04-03T11:26:51;2.55;;;1.50;;
45466;SDS011;31212;49.734;8.490;2023-04-03T11:29:22;2.80;;;0.70;;
45466;SDS011;31212;49.734;8.490;2023-04-03T11:32:04;1.25;;;0.95;;
45466;SDS011;31212;49.734;8.490;2023-04-03T11:34:39;2.80;;;1.08;;
45466;SDS011;31212;49.734;8.490;2023-04-03T11:37:12;4.88;;;1.42;;
45466;SDS011;31212;49.734;8.490;2023-04-03T11:39:47;0.60;;;0.55;;
45466;SDS011;31212;49.734;8.490;2023-04-03T11:42:24;3.22;;;0.93;;
45466;SDS011;31212;49.734;8.490;2023-04-03T11:47:52;5.38;;;1.30;;
45466;SDS011;31212;49.734;8.490;2023-04-03T11:53:31;1.20;;;0.93;;
45466;SDS011;31212;49.734;8.490;2023-04-03T11:56:00;1.00;;;0.90;;
45466;SDS011;31212;49.734;8.490;2023-04-03T12:01:45;1.67;;;1.05;;
45466;SDS011;31212;49.734;8.490;2023-04-03T12:04:13;3.03;;;1.23;;
45466;SDS011;31212;49.734;8.490;2023-04-03T12:12:29;2.85;;;1.10;;
45466;SDS011;31212;49.734;8.490;2023-04-03T12:15:11;0.80;;;0.75;;
45466;SDS011;31212;49.734;8.490;2023-04-03T12:17:45;1.70;;;1.00;;
45466;SDS011;31212;49.734;8.490;2023-04-03T12:23:26;1.45;;;0.98;;
45466;SDS011;31212;49.734;8.490;2023-04-03T12:25:59;4.03;;;0.98;;
45466;SDS011;31212;49.734;8.490;2023-04-03T12:28:36;0.93;;;0.80;;
45466;SDS011;31212;49.734;8.490;2023-04-03T12:31:05;2.10;;;1.05;;
45466;SDS011;31212;49.734;8.490;2023-04-03T12:33:41;1.30;;;0.90;;
45466;SDS011;31212;49.734;8.490;2023-04-03T12:36:23;1.00;;;0.60;;
45466;SDS011;31212;49.734;8.490;2023-04-03T12:39:05;3.03;;;1.95;;
45466;SDS011;31212;49.734;8.490;2023-04-03T12:41:42;2.38;;;1.35;;
45466;SDS011;31212;49.734;8.490;2023-04-03T12:47:19;1.17;;;0.75;;
45466;SDS011;31212;49.734;8.490;2023-04-03T12:49:51;1.35;;;0.88;;
45466;SDS011;31212;49.734;8.490;2023-04-03T12:52:22;2.08;;;1.13;;
45466;SDS011;31212;49.734;8.490;2023-04-03T12:54:58;3.10;;;1.13;;
45466;SDS011;31212;49.734;8.490;2023-04-03T12:57:27;1.92;;;0.77;;
45466;SDS011;31212;49.734;8.490;2023-04-03T12:59:54;6.07;;;0.52;;
45466;SDS011;31212;49.734;8.490;2023-04-03T13:02:22;2.85;;;0.88;;
45466;SDS011;31212;49.734;8.490;2023-04-03T13:04:52;1.50;;;1.30;;
45466;SDS011;31212;49.734;8.490;2023-04-03T13:07:23;1.38;;;0.90;;
45466;SDS011;31212;49.734;8.490;2023-04-03T13:09:57;1.10;;;0.90;;
45466;SDS011;31212;49.734;8.490;2023-04-03T13:12:25;3.33;;;1.23;;
45466;SDS011;31212;49.734;8.490;2023-04-03T13:14:53;3.47;;;1.67;;
45466;SDS011;31212;49.734;8.490;2023-04-03T13:17:22;3.65;;;0.98;;
45466;SDS011;31212;49.734;8.490;2023-04-03T13:19:48;1.85;;;0.82;;
45466;SDS011;31212;49.734;8.490;2023-04-03T13:22:22;0.98;;;0.80;;
45466;SDS011;31212;49.734;8.490;2023-04-03T13:24:53;1.73;;;1.02;;
45466;SDS011;31212;49.734;8.490;2023-04-03T13:27:21;0.73;;;0.73;;
45466;SDS011;31212;49.734;8.490;2023-04-03T13:29:51;0.82;;;0.70;;
45466;SDS011;31212;49.734;8.490;2023-04-03T13:32:20;5.68;;;0.88;;
45466;SDS011;31212;49.734;8.490;2023-04-03T13:34:49;0.82;;;0.60;;
45466;SDS011;31212;49.734;8.490;2023-04-03T13:37:22;2.38;;;0.73;;
45466;SDS011;31212;49.734;8.490;2023-04-03T13:39:57;2.88;;;0.75;;
45466;SDS011;31212;49.734;8.490;2023-04-03T13:42:26;1.25;;;0.73;;
45466;SDS011;31212;49.734;8.490;2023-04-03T13:48:06;1.55;;;0.90;;
45466;SDS011;31212;49.734;8.490;2023-04-03T13:50:48;1.05;;;0.73;;
45466;SDS011;31212;49.734;8.490;2023-04-03T13:53:18;1.05;;;0.82;;
45466;SDS011;31212;49.734;8.490;2023-04-03T13:55:53;0.85;;;0.75;;
45466;SDS011;31212;49.734;8.490;2023-04-03T13:58:35;0.70;;;0.70;;
45466;SDS011;31212;49.734;8.490;2023-04-03T14:01:08;5.15;;;1.80;;
45466;SDS011;31212;49.734;8.490;2023-04-03T14:03:40;0.80;;;0.80;;
45466;SDS011;31212;49.734;8.490;2023-04-03T14:06:10;1.70;;;1.00;;
45466;SDS011;31212;49.734;8.490;2023-04-03T14:08:39;3.40;;;1.35;;
45466;SDS011;31212;49.734;8.490;2023-04-03T14:11:08;0.70;;;0.70;;
45466;SDS011;31212;49.734;8.490;2023-04-03T14:13:39;2.03;;;0.90;;
45466;SDS011;31212;49.734;8.490;2023-04-03T14:16:05;2.75;;;1.10;;
45466;SDS011;31212;49.734;8.490;2023-04-03T14:18:32;1.10;;;0.60;;
45466;SDS011;31212;49.734;8.490;2023-04-03T14:20:58;0.73;;;0.73;;
45466;SDS011;31212;49.734;8.490;2023-04-03T14:23:25;2.33;;;1.05;;
45466;SDS011;31212;49.734;8.490;2023-04-03T14:25:53;1.02;;;0.60;;
45466;SDS011;31212;49.734;8.490;2023-04-03T14:28:20;1.17;;;0.75;;
45466;SDS011;31212;49.734;8.490;2023-04-03T14:30:48;2.53;;;1.30;;
45466;SDS011;31212;49.734;8.490;2023-04-03T14:33:16;1.15;;;1.05;;
45466;SDS011;31212;49.734;8.490;2023-04-03T14:35:44;2.47;;;0.93;;
45466;SDS011;31212;49.734;8.490;2023-04-03T14:38:13;3.25;;;0.60;;
45466;SDS011;31212;49.734;8.490;2023-04-03T14:40:47;1.75;;;0.60;;
45466;SDS011;31212;49.734;8.490;2023-04-03T14:43:16;0.80;;;0.70;;
45466;SDS011;31212;49.734;8.490;2023-04-03T14:45:43;1.20;;;1.10;;
45466;SDS011;31212;49.734;8.490;2023-04-03T14:48:10;0.40;;;0.40;;
45466;SDS011;31212;49.734;8.490;2023-04-03T14:50:43;5.10;;;0.70;;
45466;SDS011;31212;49.734;8.490;2023-04-03T14:53:09;1.05;;;0.73;;
45466;SDS011;31212;49.734;8.490;2023-04-03T14:55:37;1.35;;;1.17;;
45466;SDS011;31212;49.734;8.490;2023-04-03T14:58:04;1.35;;;0.93;;
45466;SDS011;31212;49.734;8.490;2023-04-03T15:00:32;1.27;;;0.50;;
45466;SDS011;31212;49.734;8.490;2023-04-03T15:02:59;0.82;;;0.77;;
45466;SDS011;31212;49.734;8.490;2023-04-03T15:05:25;1.38;;;0.85;;
45466;SDS011;31212;49.734;8.490;2023-04-03T15:07:52;4.05;;;0.85;;
45466;SDS011;31212;49.734;8.490;2023-04-03T15:10:22;1.08;;;0.63;;
45466;SDS011;31212;49.734;8.490;2023-04-03T15:12:54;2.10;;;1.20;;
45466;SDS011;31212;49.734;8.490;2023-04-03T15:15:22;1.30;;;0.88;;
45466;SDS011;31212;49.734;8.490;2023-04-03T15:17:52;2.58;;;1.10;;
45466;SDS011;31212;49.734;8.490;2023-04-03T15:20:21;5.22;;;1.35;;
45466;SDS011;31212;49.734;8.490;2023-04-03T15:22:49;1.52;;;1.30;;
45466;SDS011;31212;49.734;8.490;2023-04-03T15:25:15;1.77;;;1.10;;
45466;SDS011;31212;49.734;8.490;2023-04-03T15:27:43;0.60;;;0.60;;
45466;SDS011;31212;49.734;8.490;2023-04-03T15:30:11;0.70;;;0.70;;
45466;SDS011;31212;49.734;8.490;2023-04-03T15:32:40;5.05;;;1.00;;
45466;SDS011;31212;49.734;8.490;2023-04-03T15:35:08;1.35;;;0.90;;
45466;SDS011;31212;49.734;8.490;2023-04-03T15:37:35;3.20;;;0.95;;
45466;SDS011;31212;49.734;8.490;2023-04-03T15:40:02;0.70;;;0.70;;
45466;SDS011;31212;49.734;8.490;2023-04-03T15:42:29;3.08;;;0.90;;
45466;SDS011;31212;49.734;8.490;2023-04-03T15:44:55;0.90;;;0.90;;
45466;SDS011;31212;49.734;8.490;2023-04-03T15:47:22;1.17;;;1.02;;
45466;SDS011;31212;49.734;8.490;2023-04-03T15:49:50;0.90;;;0.70;;
45466;SDS011;31212;49.734;8.490;2023-04-03T15:52:18;1.33;;;0.75;;
45466;SDS011;31212;49.734;8.490;2023-04-03T15:54:44;2.33;;;0.80;;
45466;SDS011;31212;49.734;8.490;2023-04-03T15:57:11;0.85;;;0.70;;
45466;SDS011;31212;49.734;8.490;2023-04-03T15:59:37;1.58;;;0.98;;
45466;SDS011;31212;49.734;8.490;2023-04-03T16:02:04;1.42;;;0.85;;
45466;SDS011;31212;49.734;8.490;2023-04-03T16:04:33;1.25;;;1.02;;
45466;SDS011;31212;49.734;8.490;2023-04-03T16:07:00;1.92;;;1.10;;
45466;SDS011;31212;49.734;8.490;2023-04-03T16:09:28;2.25;;;1.05;;
45466;SDS011;31212;49.734;8.490;2023-04-03T16:11:55;3.42;;;1.23;;
45466;SDS011;31212;49.734;8.490;2023-04-03T16:14:21;2.80;;;1.23;;
45466;SDS011;31212;49.734;8.490;2023-04-03T16:16:48;3.22;;;1.38;;
45466;SDS011;31212;49.734;8.490;2023-04-03T16:19:14;2.72;;;1.83;;
45466;SDS011;31212;49.734;8.490;2023-04-03T16:21:41;4.03;;;1.42;;
45466;SDS011;31212;49.734;8.490;2023-04-03T16:24:08;1.17;;;0.90;;
45466;SDS011;31212;49.734;8.490;2023-04-03T16:26:36;1.85;;;1.50;;
45466;SDS011;31212;49.734;8.490;2023-04-03T16:29:02;2.25;;;1.08;;
45466;SDS011;31212;49.734;8.490;2023-04-03T16:31:29;2.10;;;1.33;;
45466;SDS011;31212;49.734;8.490;2023-04-03T16:33:58;2.28;;;0.85;;
45466;SDS011;31212;49.734;8.490;2023-04-03T16:36:26;1.20;;;0.85;;
45466;SDS011;31212;49.734;8.490;2023-04-03T16:38:52;1.15;;;0.82;;
45466;SDS011;31212;49.734;8.490;2023-04-03T16:41:19;0.70;;;0.60;;
45466;SDS011;31212;49.734;8.490;2023-04-03T16:43:47;0.88;;;0.73;;
45466;SDS011;31212;49.734;8.490;2023-04-03T16:46:15;2.90;;;1.35;;
45466;SDS011;31212;49.734;8.490;2023-04-03T16:48:41;2.63;;;1.05;;
45466;SDS011;31212;49.734;8.490;2023-04-03T16:51:08;1.63;;;1.23;;
45466;SDS011;31212;49.734;8.490;2023-04-03T16:53:34;2.47;;;1.25;;
45466;SDS011;31212;49.734;8.490;2023-04-03T16:56:01;1.13;;;0.77;;
45466;SDS011;31212;49.734;8.490;2023-04-03T16:58:28;1.67;;;0.93;;
45466;SDS011;31212;49.734;8.490;2023-04-03T17:00:56;1.15;;;0.90;;
45466;SDS011;31212;49.734;8.490;2023-04-03T17:03:22;1.25;;;0.95;;
45466;SDS011;31212;49.734;8.490;2023-04-03T17:05:50;0.47;;;0.47;;
45466;SDS011;31212;49.734;8.490;2023-04-03T17:08:17;0.85;;;0.60;;
45466;SDS011;31212;49.734;8.490;2023-04-03T17:10:44;4.60;;;1.10;;
45466;SDS011;31212;49.734;8.490;2023-04-03T17:13:10;0.60;;;0.60;;
45466;SDS011;31212;49.734;8.490;2023-04-03T17:15:37;3.47;;;0.90;;
45466;SDS011;31212;49.734;8.490;2023-04-03T17:18:05;3.42;;;0.80;;
45466;SDS011;31212;49.734;8.490;2023-04-03T17:20:32;1.98;;;1.38;;
45466;SDS011;31212;49.734;8.490;2023-04-03T17:23:01;1.58;;;0.70;;
45466;SDS011;31212;49.734;8.490;2023-04-03T17:25:27;0.95;;;0.60;;
45466;SDS011;31212;49.734;8.490;2023-04-03T17:27:54;2.72;;;1.00;;
45466;SDS011;31212;49.734;8.490;2023-04-03T17:30:26;2.13;;;0.80;;
45466;SDS011;31212;49.734;8.490;2023-04-03T17:32:53;1.55;;;0.60;;
45466;SDS011;31212;49.734;8.490;2023-04-03T17:35:21;3.77;;;1.27;;
45466;SDS011;31212;49.734;8.490;2023-04-03T17:37:47;0.70;;;0.43;;
45466;SDS011;31212;49.734;8.490;2023-04-03T17:40:14;0.68;;;0.63;;
45466;SDS011;31212;49.734;8.490;2023-04-03T17:42:42;1.85;;;0.80;;
45466;SDS011;31212;49.734;8.490;2023-04-03T17:45:09;1.63;;;0.93;;
45466;SDS011;31212;49.734;8.490;2023-04-03T17:47:36;5.97;;;0.85;;
45466;SDS011;31212;49.734;8.490;2023-04-03T17:50:03;1.50;;;0.60;;
45466;SDS011;31212;49.734;8.490;2023-04-03T17:52:31;2.08;;;0.65;;
45466;SDS011;31212;49.734;8.490;2023-04-03T17:54:57;0.70;;;0.47;;
45466;SDS011;31212;49.734;8.490;2023-04-03T17:57:24;1.17;;;0.70;;
45466;SDS011;31212;49.734;8.490;2023-04-03T17:59:50;1.47;;;1.07;;
45466;SDS011;31212;49.734;8.490;2023-04-03T18:02:18;4.67;;;1.00;;
45466;SDS011;31212;49.734;8.490;2023-04-03T18:04:44;2.30;;;0.90;;
45466;SDS011;31212;49.734;8.490;2023-04-03T18:07:11;1.97;;;0.80;;
45466;SDS011;31212;49.734;8.490;2023-04-03T18:09:39;0.43;;;0.43;;
45466;SDS011;31212;49.734;8.490;2023-04-03T18:12:06;3.50;;;1.33;;
45466;SDS011;31212;49.734;8.490;2023-04-03T18:14:34;0.80;;;0.80;;
45466;SDS011;31212;49.734;8.490;2023-04-03T18:17:02;3.23;;;0.90;;
45466;SDS011;31212;49.734;8.490;2023-04-03T18:19:29;1.33;;;0.90;;